Main page
METAR-TAF:

Airports :

San Fernando, Argentina

San Fernando Airport

latitude: 34-27-11S, longitude: 058-35-23W, elevation: 3 m

Current weather observation

The report was made 47 minutes ago, at 13:00 UTC
Wind 4 kt from the North
Temperature 19°C
Humidity 46%
Pressure 1019 hPa
Visibility 10 km or more
no clouds below 1500 m and no cumulonimbus

METAR: SADF 271300Z 36004KT CAVOK 19/07 Q1019

Time: 10:47 (13:47 UTC)

Forecast

The report was made 2 hours and 7 minutes ago, at 11:40 UTC
Forecast valid from 27 at 12 UTC to 28 at 12 UTC
Wind 5 kt from the North
Visibility 10 km or more
no clouds below 1500 m and no cumulonimbus
Temporary
from 27 at 17 UTC to 27 at 22 UTC
Wind 10 kt from the Northeast

TAF: SADF 271140Z 2712/2812 36005KT CAVOK TX24/2718Z TN12/2809Z TEMPO 2717/2722 05010KT

METAR-TAF

Weather observations and forecasts of more than 4000 airports (METAR and TAF reports).

The available stations are represented by yellow and red dots on the map.

Hover mouse over dot to see the name of the station.

Then click to see weather observations and forecasts.

To change the map : click on the green buttons with a black cross to zoom in, on the green button with a dash to zoom out, or on the green arrows for adjacent maps.


METAR-TAF: